Time;durP1;ratioP1;P1;durP2;ratioP2;P2;SDS_P1;SDS_P2;PMS_P1;PMS_P2;Temp;Humidity;BMP_temperature;BMP_pressure;BME280_temperature;BME280_humidity;BME280_pressure;Samples;Min_cycle;Max_cycle;Signal;HPM_P1;HPM_P2
2021/09/30 00:02:27;;;;;;;14.60;12.60;;;;;;;20.67;70.70;100563.03;5095733;28;20473;-73
2021/09/30 00:04:56;;;;;;;15.35;13.30;;;;;;;20.66;70.76;100560.59;5092054;28;20090;-73
2021/09/30 00:07:24;;;;;;;14.57;13.18;;;;;;;20.60;70.98;100551.00;5092680;28;20105;-75
2021/09/30 00:09:56;;;;;;;14.00;12.55;;;;;;;20.58;71.28;100562.72;5092422;28;20032;-74
2021/09/30 00:12:28;;;;;;;13.68;12.25;;;;;;;20.61;71.80;100558.25;5092398;28;20119;-72
2021/09/30 00:15:34;;;;;;;13.70;12.40;;;;;;;20.57;71.31;100563.16;5092665;28;20040;-74
2021/09/30 00:40:15;;;;;;;15.25;12.80;;;;;;;20.55;71.54;100546.59;5093645;28;20540;-72
2021/09/30 02:27:17;;;;;;;34.70;30.80;;;;;;;19.96;73.14;100520.59;5083689;28;20039;-73
2021/09/30 03:00:18;;;;;;;23.98;21.63;;;;;;;19.98;74.83;100518.19;5115253;28;20039;-73
2021/09/30 03:02:48;;;;;;;24.15;21.67;;;;;;;20.02;74.39;100524.56;5096584;28;20031;-73
2021/09/30 03:05:15;;;;;;;17.02;15.35;;;;;;;19.94;74.18;100525.88;5096335;28;20047;-74
2021/09/30 03:07:42;;;;;;;17.25;15.55;;;;;;;19.84;74.88;100517.09;5097008;28;20027;-72
2021/09/30 03:10:08;;;;;;;18.98;17.08;;;;;;;19.85;75.39;100529.97;5096610;28;20031;-73
2021/09/30 03:12:40;;;;;;;21.38;19.27;;;;;;;19.87;74.96;100521.13;5114806;28;20050;-73
2021/09/30 03:17:49;;;;;;;29.17;26.48;;;;;;;19.83;75.28;100526.78;5114431;28;20163;-74
2021/09/30 03:23:08;;;;;;;25.73;23.33;;;;;;;19.77;76.33;100522.81;5115080;28;20038;-73
2021/09/30 03:25:37;;;;;;;20.42;18.30;;;;;;;19.75;75.86;100528.06;5096847;28;20051;-71
2021/09/30 03:28:03;;;;;;;22.20;19.95;;;;;;;19.72;77.05;100528.91;5096525;28;20015;-72
2021/09/30 03:30:34;;;;;;;22.77;20.67;;;;;;;19.70;76.72;100522.84;5115012;28;20110;-73
2021/09/30 03:33:04;;;;;;;25.35;22.75;;;;;;;19.70;76.66;100525.69;5095752;28;20016;-71
2021/09/30 03:35:40;;;;;;;22.17;20.02;;;;;;;19.75;76.69;100524.44;5096164;28;20565;-71
2021/09/30 03:38:12;;;;;;;20.70;18.50;;;;;;;19.73;76.69;100527.69;5114596;28;20031;-73
2021/09/30 03:40:38;;;;;;;21.25;19.05;;;;;;;19.72;76.70;100531.72;5096300;28;20520;-72
2021/09/30 03:43:05;;;;;;;17.88;16.17;;;;;;;19.73;76.56;100536.16;5079262;28;20038;-73
2021/09/30 03:45:37;;;;;;;15.20;13.45;;;;;;;19.71;77.05;100532.97;5096521;28;20039;-72
2021/09/30 03:48:07;;;;;;;18.80;13.52;;;;;;;19.71;76.58;100537.78;5096008;28;20118;-72
2021/09/30 03:50:47;;;;;;;16.75;14.68;;;;;;;19.51;76.42;100514.94;5095824;28;20027;-73
2021/09/30 03:56:00;;;;;;;16.15;13.80;;;;;;;19.71;76.64;100541.44;5114409;28;20088;-73
2021/09/30 04:01:21;;;;;;;15.85;14.25;;;;;;;19.71;76.97;100530.13;5113965;28;20504;-71
2021/09/30 04:03:50;;;;;;;16.38;14.65;;;;;;;19.71;77.12;100535.78;5095588;28;20067;-71
2021/09/30 04:06:18;;;;;;;15.20;13.68;;;;;;;19.71;77.54;100537.78;5113877;28;20512;-71
2021/09/30 04:08:47;;;;;;;16.33;14.27;;;;;;;19.74;77.55;100540.56;5095596;28;20031;-73
2021/09/30 04:11:16;;;;;;;16.63;14.27;;;;;;;19.68;77.18;100528.13;5095793;28;20466;-72
2021/09/30 04:13:44;;;;;;;15.23;13.60;;;;;;;19.79;77.19;100531.66;5095858;28;20465;-71
2021/09/30 04:16:10;;;;;;;16.42;13.55;;;;;;;19.76;77.29;100526.03;5096108;28;20334;-72
2021/09/30 04:18:41;;;;;;;15.45;13.95;;;;;;;19.75;77.24;100536.53;5095433;28;20023;-73
2021/09/30 04:21:07;;;;;;;15.40;13.88;;;;;;;19.76;77.28;100531.69;5095457;28;20070;-73
2021/09/30 04:23:32;;;;;;;17.02;14.38;;;;;;;19.76;76.75;100528.84;5095401;28;20077;-72
2021/09/30 04:26:07;;;;;;;13.40;12.00;;;;;;;19.81;76.25;100534.84;5095304;28;20020;-72
2021/09/30 04:28:38;;;;;;;15.25;13.68;;;;;;;19.80;76.95;100538.91;5095519;28;20076;-73
2021/09/30 04:31:09;;;;;;;16.23;14.55;;;;;;;19.80;77.25;100544.53;5096027;28;20342;-73
2021/09/30 04:33:40;;;;;;;17.50;13.77;;;;;;;19.72;77.11;100530.94;5095625;28;20369;-74
2021/09/30 04:36:08;;;;;;;14.68;13.13;;;;;;;19.75;77.30;100545.00;5113604;28;20080;-74
2021/09/30 04:38:37;;;;;;;14.40;12.95;;;;;;;19.74;77.45;100542.59;5095626;28;20473;-72
2021/09/30 04:41:03;;;;;;;15.38;13.55;;;;;;;19.78;77.29;100547.00;5095626;28;20411;-72
2021/09/30 04:43:31;;;;;;;14.90;13.20;;;;;;;19.82;77.09;100542.13;5095246;28;20065;-72
2021/09/30 04:46:02;;;;;;;14.85;13.40;;;;;;;19.85;76.78;100538.44;5097794;28;20100;-73
2021/09/30 04:48:30;;;;;;;14.88;13.38;;;;;;;19.94;75.89;100537.19;5099481;28;20377;-73
2021/09/30 04:50:56;;;;;;;13.32;11.98;;;;;;;19.80;76.61;100538.91;5099147;28;20088;-73
2021/09/30 04:53:27;;;;;;;15.40;13.90;;;;;;;19.82;76.60;100539.31;5099062;28;20032;-73
2021/09/30 04:55:56;;;;;;;21.40;17.20;;;;;;;19.76;77.17;100543.81;5099281;28;20119;-71
2021/09/30 04:58:24;;;;;;;20.17;17.48;;;;;;;19.70;77.49;100539.78;5098528;28;20036;-72
2021/09/30 05:00:50;;;;;;;21.30;15.98;;;;;;;19.61;78.03;100547.97;5098340;28;20027;-71
2021/09/30 05:03:16;;;;;;;17.60;15.32;;;;;;;19.68;78.06;100542.25;5098277;28;20537;-72
2021/09/30 05:05:41;;;;;;;17.30;14.25;;;;;;;19.68;78.20;100547.88;5098455;28;20050;-73
2021/09/30 05:08:07;;;;;;;32.70;28.42;;;;;;;19.70;78.01;100553.91;5098899;28;20111;-72
2021/09/30 05:10:35;;;;;;;37.25;31.92;;;;;;;19.78;78.16;100554.66;5098994;28;20066;-73
2021/09/30 05:13:11;;;;;;;41.58;32.78;;;;;;;19.75;77.89;100547.03;5099316;28;20039;-71
2021/09/30 05:15:39;;;;;;;32.85;24.45;;;;;;;19.80;77.78;100550.19;5098716;28;20163;-72
2021/09/30 05:18:12;;;;;;;20.25;18.35;;;;;;;19.91;76.94;100549.28;5098587;28;20118;-72
2021/09/30 05:20:40;;;;;;;20.02;17.90;;;;;;;20.01;76.36;100554.03;5098759;28;20031;-72
2021/09/30 05:23:09;;;;;;;17.38;15.57;;;;;;;20.19;76.12;100559.50;5098499;28;20061;-72
2021/09/30 05:25:34;;;;;;;20.98;15.52;;;;;;;20.32;75.31;100567.03;5099036;28;20066;-72
2021/09/30 05:28:02;;;;;;;15.27;13.50;;;;;;;20.53;75.24;100568.84;5098762;28;20426;-73
2021/09/30 05:30:29;;;;;;;16.45;14.75;;;;;;;20.70;74.34;100567.03;5098543;28;20035;-71
2021/09/30 05:32:55;;;;;;;17.58;13.63;;;;;;;20.91;73.24;100557.47;5098405;28;20031;-74
2021/09/30 05:35:21;;;;;;;14.15;12.85;;;;;;;21.18;72.43;100569.59;5098374;28;20031;-72
2021/09/30 05:37:50;;;;;;;15.60;13.93;;;;;;;21.44;71.83;100567.25;5098219;28;20020;-74
2021/09/30 05:40:15;;;;;;;15.25;13.77;;;;;;;21.69;70.55;100556.31;5117027;28;20031;-75
2021/09/30 05:42:43;;;;;;;17.27;12.93;;;;;;;21.98;69.45;100565.09;5098725;28;20035;-76
2021/09/30 05:45:11;;;;;;;15.63;12.95;;;;;;;22.28;68.11;100569.06;5098175;28;20092;-74
2021/09/30 05:47:40;;;;;;;15.57;11.82;;;;;;;22.54;67.31;100563.72;5116264;28;20106;-74
2021/09/30 05:50:07;;;;;;;16.45;12.18;;;;;;;22.79;66.28;100566.81;5098518;28;20591;-75
2021/09/30 05:52:34;;;;;;;13.35;11.82;;;;;;;23.11;65.12;100568.97;5097512;28;20027;-75
2021/09/30 05:55:03;;;;;;;12.43;11.00;;;;;;;23.41;64.13;100567.09;5098360;28;20032;-73
2021/09/30 05:57:32;;;;;;;12.95;11.45;;;;;;;23.72;62.89;100567.56;5097729;28;20023;-73
2021/09/30 06:16:26;;;;;;;11.13;10.02;;;;;;;25.89;56.79;100590.97;5115662;28;20051;-74
2021/09/30 06:18:57;;;;;;;11.40;10.32;;;;;;;26.17;55.84;100595.69;5097506;28;20028;-75
2021/09/30 06:21:26;;;;;;;12.63;11.23;;;;;;;26.45;55.23;100604.53;5097995;28;20050;-74
2021/09/30 06:23:51;;;;;;;17.63;12.13;;;;;;;26.67;54.08;100602.50;5097423;28;20049;-75
2021/09/30 06:26:17;;;;;;;12.82;11.23;;;;;;;26.87;53.70;100596.44;5097549;28;20076;-75
2021/09/30 06:28:45;;;;;;;12.65;10.88;;;;;;;27.34;52.50;100602.00;5096891;28;20366;-75
2021/09/30 06:31:17;;;;;;;12.23;11.02;;;;;;;27.10;52.96;100607.41;5097037;28;20030;-74
2021/09/30 06:33:46;;;;;;;13.23;10.70;;;;;;;27.29;51.13;100607.53;5097003;28;20039;-76
2021/09/30 06:36:14;;;;;;;11.90;10.77;;;;;;;26.92;52.83;100610.13;5096936;28;20039;-73
2021/09/30 06:38:40;;;;;;;13.18;11.27;;;;;;;27.10;52.16;100607.41;5097230;28;20030;-75
2021/09/30 06:41:06;;;;;;;12.95;11.63;;;;;;;26.85;52.66;100604.69;5097564;28;20039;-75
2021/09/30 06:43:35;;;;;;;14.27;10.85;;;;;;;27.16;52.30;100610.44;5096675;28;20055;-74
2021/09/30 06:46:03;;;;;;;15.50;11.98;;;;;;;27.56;51.67;100613.34;5097580;28;20118;-75
2021/09/30 06:48:34;;;;;;;17.13;15.38;;;;;;;27.34;51.44;100612.63;5096728;28;20019;-75
2021/09/30 06:51:06;;;;;;;16.95;15.13;;;;;;;27.27;51.27;100607.19;5092548;28;20034;-76
2021/09/30 06:53:31;;;;;;;22.05;16.90;;;;;;;26.97;52.54;100606.69;5115062;28;20020;-75
2021/09/30 06:56:08;;;;;;;27.33;21.98;;;;;;;26.50;53.74;100615.34;5097201;28;20043;-75
2021/09/30 06:58:44;;;;;;;24.50;21.73;;;;;;;26.61;53.15;100610.84;5096760;28;20020;-76
2021/09/30 07:01:11;;;;;;;28.42;21.85;;;;;;;26.98;52.86;100613.97;5096775;28;20122;-75
2021/09/30 07:03:37;;;;;;;16.55;14.20;;;;;;;27.19;52.03;100620.94;5115242;28;20016;-73
2021/09/30 07:06:03;;;;;;;20.10;17.55;;;;;;;27.58;51.26;100627.16;5093145;28;20060;-75
2021/09/30 07:08:32;;;;;;;21.55;19.33;;;;;;;27.64;51.00;100631.00;5092790;28;20343;-75
2021/09/30 07:11:01;;;;;;;15.95;14.38;;;;;;;27.57;50.86;100629.22;5093794;28;20036;-75
2021/09/30 07:13:30;;;;;;;20.25;15.68;;;;;;;27.61;50.87;100618.47;5093020;28;20039;-74
2021/09/30 07:15:58;;;;;;;16.38;14.68;;;;;;;27.38;51.16;100630.44;5094848;28;20028;-75
2021/09/30 07:18:26;;;;;;;16.27;13.40;;;;;;;27.35;50.98;100614.22;5092994;28;20571;-74
2021/09/30 07:21:00;;;;;;;16.67;13.27;;;;;;;27.34;51.77;100618.34;5093322;28;20480;-74
2021/09/30 07:23:32;;;;;;;14.05;12.65;;;;;;;27.73;50.39;100624.56;5092923;28;20028;-73
2021/09/30 07:26:01;;;;;;;16.42;13.73;;;;;;;27.40;51.15;100625.81;5094020;28;20076;-75
2021/09/30 07:28:29;;;;;;;17.33;14.98;;;;;;;27.32;51.33;100635.13;5092178;28;20028;-72
2021/09/30 07:30:55;;;;;;;19.38;16.20;;;;;;;27.00;51.92;100634.28;5094402;28;20465;-74
2021/09/30 07:33:26;;;;;;;18.95;16.77;;;;;;;28.12;49.82;100620.84;5092918;28;20124;-75
2021/09/30 07:35:59;;;;;;;19.95;17.50;;;;;;;28.12;49.89;100625.78;5092779;28;20028;-75
2021/09/30 07:38:28;;;;;;;23.08;18.40;;;;;;;27.80;50.25;100627.13;5092836;28;20035;-74
2021/09/30 07:40:58;;;;;;;13.90;12.57;;;;;;;27.87;50.26;100627.63;5093220;28;20458;-74
2021/09/30 07:43:27;;;;;;;15.05;13.05;;;;;;;28.20;48.63;100619.28;5092827;28;20334;-73
2021/09/30 07:45:58;;;;;;;15.77;12.90;;;;;;;28.66;47.07;100613.63;5092706;28;20478;-72
2021/09/30 07:48:23;;;;;;;12.38;11.00;;;;;;;28.18;48.08;100613.25;5092479;28;20031;-73
2021/09/30 07:50:49;;;;;;;12.38;11.13;;;;;;;28.27;48.46;100614.50;5092344;28;20024;-73
2021/09/30 07:53:20;;;;;;;12.80;11.50;;;;;;;28.11;48.21;100622.13;5092938;28;20024;-75
2021/09/30 07:55:49;;;;;;;11.60;9.52;;;;;;;28.73;46.80;100623.94;5092525;28;20060;-74
2021/09/30 07:58:17;;;;;;;12.02;10.93;;;;;;;29.45;45.17;100622.22;5092754;28;20110;-73
2021/09/30 08:00:43;;;;;;;10.48;9.35;;;;;;;28.93;45.43;100627.13;5091656;28;20103;-74
2021/09/30 08:03:09;;;;;;;10.30;9.25;;;;;;;29.07;46.08;100622.81;5092332;28;20108;-73
2021/09/30 08:05:36;;;;;;;10.60;9.60;;;;;;;28.79;45.78;100626.97;5092008;28;20046;-75
2021/09/30 08:08:06;;;;;;;8.80;8.00;;;;;;;29.51;44.92;100633.84;5092618;28;20030;-75
2021/09/30 08:10:33;;;;;;;10.20;9.20;;;;;;;29.81;44.03;100631.97;5092317;28;20085;-73
2021/09/30 08:13:01;;;;;;;10.93;9.23;;;;;;;30.10;43.42;100634.22;5092233;28;20430;-73
2021/09/30 08:15:27;;;;;;;9.35;8.55;;;;;;;29.68;43.69;100632.19;5092491;28;20032;-74
2021/09/30 08:17:58;;;;;;;9.10;8.20;;;;;;;29.43;43.99;100635.44;5092277;28;20043;-74
2021/09/30 08:20:27;;;;;;;9.38;8.48;;;;;;;29.29;44.39;100642.63;5095662;28;20035;-73
2021/09/30 08:22:55;;;;;;;10.48;8.98;;;;;;;29.47;44.02;100641.81;5096949;28;20038;-74
2021/09/30 08:25:24;;;;;;;11.82;8.40;;;;;;;29.75;42.54;100634.69;5097874;28;20462;-74
2021/09/30 08:27:55;;;;;;;7.63;7.03;;;;;;;29.55;42.74;100648.00;5096679;28;20020;-74
2021/09/30 08:30:21;;;;;;;7.30;6.50;;;;;;;30.93;40.22;100650.81;5096230;28;20095;-74
2021/09/30 08:32:52;;;;;;;8.52;7.72;;;;;;;31.55;39.40;100655.63;5096486;28;20062;-75
2021/09/30 08:35:23;;;;;;;7.90;7.13;;;;;;;31.94;37.56;100664.09;5096207;28;20541;-73
2021/09/30 08:37:51;;;;;;;9.52;8.65;;;;;;;30.50;41.03;100655.94;5095952;28;20064;-74
2021/09/30 08:40:17;;;;;;;10.23;9.02;;;;;;;29.95;42.73;100665.69;5096159;28;20039;-74
2021/09/30 08:42:48;;;;;;;11.40;10.18;;;;;;;29.53;44.05;100662.00;5095935;28;20024;-74
2021/09/30 08:45:22;;;;;;;10.57;9.23;;;;;;;29.38;43.77;100667.63;5095910;28;20040;-74
2021/09/30 08:47:58;;;;;;;9.77;8.88;;;;;;;29.86;43.14;100659.19;5096956;28;20029;-74
2021/09/30 08:50:25;;;;;;;9.45;8.65;;;;;;;30.22;42.37;100664.75;5079378;28;20214;-76
2021/09/30 08:52:51;;;;;;;9.20;8.30;;;;;;;30.64;40.68;100675.31;5096009;28;20111;-74
2021/09/30 08:55:17;;;;;;;10.02;8.25;;;;;;;30.16;42.06;100672.44;5095629;28;20028;-75
2021/09/30 08:57:50;;;;;;;9.32;8.32;;;;;;;29.83;42.61;100674.50;5095714;28;20032;-75
2021/09/30 09:00:18;;;;;;;10.63;7.93;;;;;;;31.05;41.12;100669.84;5095705;28;20466;-73
2021/09/30 09:02:50;;;;;;;10.68;8.88;;;;;;;30.47;41.37;100669.22;5078717;28;20035;-74
2021/09/30 09:05:20;;;;;;;9.60;8.43;;;;;;;31.11;41.11;100673.66;5094878;28;20551;-74
2021/09/30 09:07:58;;;;;;;9.25;8.27;;;;;;;31.50;39.31;100670.72;5095255;28;20079;-72
2021/09/30 09:10:30;;;;;;;10.52;8.32;;;;;;;32.09;38.13;100687.88;5095390;28;20028;-73
2021/09/30 09:13:15;;;;;;;12.43;8.27;;;;;;;32.37;37.02;100684.63;5096006;28;20028;-73
2021/09/30 09:15:45;;;;;;;9.60;8.18;;;;;;;32.93;35.47;100686.16;5095377;28;20030;-73
2021/09/30 09:18:33;;;;;;;8.20;7.18;;;;;;;32.86;35.27;100687.34;5095941;28;20063;-75
2021/09/30 09:21:03;;;;;;;8.85;7.97;;;;;;;33.06;35.80;100682.88;5095098;28;20114;-75
2021/09/30 09:23:31;;;;;;;11.52;8.07;;;;;;;33.49;34.63;100685.94;5095337;28;20443;-73
2021/09/30 09:26:11;;;;;;;10.65;7.97;;;;;;;33.38;34.59;100681.63;5095179;28;20123;-74
2021/09/30 09:28:42;;;;;;;10.57;9.32;;;;;;;31.37;38.35;100673.06;5095201;28;20024;-73
2021/09/30 09:31:15;;;;;;;11.88;9.65;;;;;;;31.67;37.47;100671.78;5094611;28;20047;-74
2021/09/30 09:33:43;;;;;;;9.00;8.18;;;;;;;32.32;37.01;100675.38;5094980;28;20042;-74
2021/09/30 09:36:19;;;;;;;9.27;8.38;;;;;;;31.48;37.16;100667.50;5096054;28;20024;-74
2021/09/30 09:38:51;;;;;;;8.63;7.85;;;;;;;31.50;37.56;100668.63;5095809;28;20359;-74
2021/09/30 09:41:35;;;;;;;8.93;8.15;;;;;;;30.92;37.78;100663.63;5094848;28;20028;-74
2021/09/30 09:44:06;;;;;;;9.70;8.75;;;;;;;30.45;38.72;100666.03;5094795;28;20024;-72
2021/09/30 09:46:40;;;;;;;9.60;8.32;;;;;;;30.61;39.21;100667.66;5095019;28;20086;-74
2021/09/30 09:49:14;;;;;;;9.35;8.52;;;;;;;31.48;37.64;100661.75;5094813;28;20020;-73
2021/09/30 09:51:52;;;;;;;9.60;8.50;;;;;;;31.71;36.45;100651.44;5095468;28;20036;-75
2021/09/30 09:54:26;;;;;;;8.15;7.32;;;;;;;31.37;37.19;100658.69;5094453;28;20128;-74
2021/09/30 09:57:10;;;;;;;7.63;6.95;;;;;;;31.32;37.63;100654.47;5094197;28;20028;-74
2021/09/30 09:59:41;;;;;;;8.30;7.50;;;;;;;31.08;39.02;100653.72;5089601;28;20543;-74
2021/09/30 10:02:25;;;;;;;9.27;7.13;;;;;;;30.99;38.73;100658.25;5094132;28;20036;-76
2021/09/30 10:04:51;;;;;;;10.95;8.55;;;;;;;30.06;41.22;100652.88;5093583;28;20086;-76
2021/09/30 10:07:21;;;;;;;9.00;7.90;;;;;;;29.23;42.28;100644.56;5093485;28;20119;-73
2021/09/30 10:09:50;;;;;;;9.13;8.20;;;;;;;28.70;43.06;100647.78;5093795;28;20064;-75
2021/09/30 10:12:22;;;;;;;8.80;7.63;;;;;;;28.56;42.63;100642.72;5094280;28;20119;-74
2021/09/30 10:14:49;;;;;;;8.65;7.95;;;;;;;28.82;42.84;100631.75;5094053;28;20165;-76
2021/09/30 10:17:15;;;;;;;8.73;7.93;;;;;;;28.87;42.09;100639.66;5093928;28;20050;-74
2021/09/30 10:19:42;;;;;;;11.23;7.88;;;;;;;28.68;42.67;100642.56;5093820;28;20526;-74
2021/09/30 10:22:10;;;;;;;9.48;8.45;;;;;;;28.79;42.62;100641.28;5094425;28;20028;-73
2021/09/30 10:24:46;;;;;;;9.10;7.65;;;;;;;28.81;42.18;100638.72;5094082;28;20085;-74
2021/09/30 10:27:15;;;;;;;8.80;7.95;;;;;;;29.22;41.22;100620.84;5091835;28;20126;-72
2021/09/30 10:29:46;;;;;;;7.97;7.38;;;;;;;28.73;42.22;100635.41;5093950;28;20032;-74
2021/09/30 10:32:19;;;;;;;8.43;7.68;;;;;;;29.13;41.18;100632.34;5093870;28;20035;-74
2021/09/30 10:34:47;;;;;;;16.35;8.00;;;;;;;29.98;40.08;100623.75;5094038;28;20039;-74
2021/09/30 10:37:25;;;;;;;13.50;7.57;;;;;;;30.26;38.92;100622.31;5094364;28;20046;-73
2021/09/30 10:40:19;;;;;;;8.40;7.75;;;;;;;29.89;39.05;100626.69;5077614;28;20142;-74
2021/09/30 10:42:58;;;;;;;;;;;;;;;29.82;39.71;100627.81;5084693;28;20067;-75
2021/09/30 10:45:38;;;;;;;8.32;7.55;;;;;;;28.64;41.81;100626.81;5093712;28;19965;-75
2021/09/30 10:48:31;;;;;;;10.75;8.85;;;;;;;28.06;43.58;100616.22;5093588;28;20039;-74
2021/09/30 10:51:10;;;;;;;9.65;8.60;;;;;;;27.47;46.62;100624.75;5093570;28;20031;-74
2021/09/30 10:53:47;;;;;;;9.05;8.18;;;;;;;27.62;46.61;100622.91;5093571;28;20036;-73
2021/09/30 10:56:31;;;;;;;8.98;8.10;;;;;;;28.01;48.07;100631.94;5093803;28;20370;-74
2021/09/30 10:59:20;;;;;;;10.93;7.80;;;;;;;28.19;48.60;100614.03;5093883;28;20032;-75
2021/09/30 11:01:49;;;;;;;8.77;7.78;;;;;;;28.56;47.86;100614.09;5092348;28;20023;-75
2021/09/30 11:04:21;;;;;;;8.68;7.97;;;;;;;29.21;45.83;100612.75;5093180;28;20096;-75
2021/09/30 11:07:05;;;;;;;8.07;7.28;;;;;;;29.46;44.37;100583.69;5093259;28;20477;-74
2021/09/30 11:09:31;;;;;;;9.02;8.02;;;;;;;30.25;43.72;100614.19;5093127;28;20554;-76
2021/09/30 11:12:23;;;;;;;11.93;7.68;;;;;;;29.98;44.38;100606.53;5093170;28;20034;-74
2021/09/30 11:14:53;;;;;;;8.60;7.78;;;;;;;29.94;44.34;100594.47;5089515;28;20078;-74
2021/09/30 11:17:38;;;;;;;10.38;7.47;;;;;;;29.81;44.81;100591.03;5093935;28;20063;-73
2021/09/30 11:20:31;;;;;;;8.73;7.82;;;;;;;30.06;43.92;100584.03;5093035;28;20035;-74
2021/09/30 11:22:58;;;;;;;9.38;8.48;;;;;;;30.12;43.58;100587.84;5083020;28;20028;-75
2021/09/30 11:26:01;;;;;;;9.35;8.45;;;;;;;30.63;42.33;100581.84;5092578;28;20035;-74
2021/09/30 11:28:33;;;;;;;8.90;8.10;;;;;;;29.91;44.05;100587.63;5092922;28;20024;-75
2021/09/30 11:31:33;;;;;;;8.77;7.90;;;;;;;30.10;44.20;100573.94;5093263;28;20052;-75
2021/09/30 11:34:04;;;;;;;8.63;7.82;;;;;;;29.97;44.85;100576.25;5092831;28;20055;-75
2021/09/30 11:36:32;;;;;;;9.38;8.48;;;;;;;30.17;45.19;100570.72;5093158;28;20090;-75
2021/09/30 11:38:58;;;;;;;10.27;8.65;;;;;;;30.37;44.22;100563.56;5092275;28;20489;-75
2021/09/30 11:41:35;;;;;;;8.27;7.38;;;;;;;30.09;44.19;100565.81;5092795;28;20031;-76
2021/09/30 11:44:04;;;;;;;10.15;8.35;;;;;;;30.33;44.38;100565.84;5094482;28;20020;-74
2021/09/30 11:46:42;;;;;;;8.50;7.70;;;;;;;30.76;43.18;100561.47;5092780;28;20130;-74
2021/09/30 11:49:13;;;;;;;8.43;7.70;;;;;;;30.98;42.20;100558.19;5094016;28;20099;-74
2021/09/30 11:51:41;;;;;;;8.40;7.65;;;;;;;31.16;41.48;100551.44;5092367;28;20563;-76
2021/09/30 11:54:09;;;;;;;9.70;7.90;;;;;;;31.19;41.66;100547.59;5092285;28;20024;-75
2021/09/30 11:56:45;;;;;;;8.77;8.07;;;;;;;31.03;41.74;100543.13;5092514;28;20024;-75
2021/09/30 11:59:11;;;;;;;8.43;7.63;;;;;;;30.91;42.23;100538.50;5092645;28;20032;-74
2021/09/30 12:01:47;;;;;;;10.77;6.78;;;;;;;31.24;42.03;100535.38;5092349;28;20122;-75
2021/09/30 12:04:32;;;;;;;8.50;7.80;;;;;;;30.82;42.69;100532.84;5095359;28;20055;-74
2021/09/30 12:07:03;;;;;;;8.85;8.05;;;;;;;30.65;43.12;100529.66;5095259;28;20048;-73
2021/09/30 12:09:33;;;;;;;8.10;6.72;;;;;;;30.99;42.30;100533.94;5095470;28;20067;-74
2021/09/30 12:12:03;;;;;;;8.73;7.82;;;;;;;30.52;43.27;100518.44;5095662;28;20073;-75
2021/09/30 12:14:39;;;;;;;8.18;7.45;;;;;;;30.45;43.31;100507.34;5095982;28;20032;-75
2021/09/30 12:17:08;;;;;;;9.52;7.95;;;;;;;30.42;44.10;100514.88;5096068;28;20050;-75
2021/09/30 12:19:37;;;;;;;10.18;7.65;;;;;;;29.75;45.46;100514.25;5078769;28;20063;-75
2021/09/30 12:22:17;;;;;;;8.35;7.63;;;;;;;30.04;45.10;100509.91;5096245;28;20423;-74
2021/09/30 12:24:49;;;;;;;8.43;7.53;;;;;;;29.94;46.12;100517.00;5095643;28;20114;-75
2021/09/30 12:27:16;;;;;;;8.60;7.90;;;;;;;30.09;45.46;100509.22;5095280;28;20023;-74
2021/09/30 12:29:51;;;;;;;10.38;7.90;;;;;;;30.35;44.48;100502.97;5095137;28;20036;-74
2021/09/30 12:32:20;;;;;;;8.55;7.75;;;;;;;30.24;44.71;100504.34;5113443;28;20023;-74
2021/09/30 12:34:55;;;;;;;8.98;8.13;;;;;;;29.56;46.52;100495.56;5095670;28;20028;-76
2021/09/30 12:37:33;;;;;;;10.23;8.63;;;;;;;29.50;47.91;100504.03;5095739;28;20470;-77
2021/09/30 12:40:05;;;;;;;9.32;8.52;;;;;;;29.49;48.03;100498.78;5095494;28;20027;-76
2021/09/30 12:42:32;;;;;;;9.30;8.27;;;;;;;29.12;48.44;100498.97;5078775;28;20031;-77
2021/09/30 12:44:59;;;;;;;9.15;7.72;;;;;;;29.57;47.73;100505.78;5096258;28;20031;-76
2021/09/30 12:47:59;;;;;;;10.90;9.13;;;;;;;29.84;46.99;100509.75;5079314;28;20097;-76
2021/09/30 12:50:37;;;;;;;8.77;8.07;;;;;;;29.97;45.99;100511.06;5113441;28;20035;-75
2021/09/30 12:53:06;;;;;;;11.55;8.65;;;;;;;30.31;45.80;100508.09;5095959;28;20515;-76
2021/09/30 12:55:38;;;;;;;9.30;8.50;;;;;;;30.34;44.71;100512.88;5095332;28;20038;-75
2021/09/30 12:58:45;;;;;;;9.70;8.73;;;;;;;30.76;43.20;100495.41;5095307;28;20469;-75
2021/09/30 13:01:37;;;;;;;9.13;8.23;;;;;;;30.23;44.41;100497.03;5113694;28;20107;-76
2021/09/30 13:04:10;;;;;;;8.90;8.10;;;;;;;30.18;44.48;100489.09;5095204;28;20501;-76
2021/09/30 13:06:42;;;;;;;9.20;8.38;;;;;;;29.73;46.10;100493.91;5096619;28;20036;-76
2021/09/30 13:09:38;;;;;;;9.52;8.68;;;;;;;29.31;46.61;100498.91;5117361;28;20020;-76
2021/09/30 13:12:13;;;;;;;13.00;8.68;;;;;;;29.52;46.12;100511.38;5117303;28;20022;-76
2021/09/30 13:14:51;;;;;;;11.48;8.25;;;;;;;29.42;45.58;100524.94;5117315;28;20032;-75
2021/09/30 13:17:21;;;;;;;9.77;8.70;;;;;;;27.85;50.34;100544.38;5117415;28;20106;-75
2021/09/30 13:19:52;;;;;;;10.60;9.60;;;;;;;26.33;55.08;100566.22;5098743;28;20055;-75
2021/09/30 13:22:23;;;;;;;16.90;11.43;;;;;;;24.09;67.02;100556.88;5098753;28;20073;-79
2021/09/30 13:24:56;;;;;;;12.65;10.27;;;;;;;22.92;69.45;100581.97;5099241;28;20350;-83
2021/09/30 13:27:40;;;;;;;12.27;10.60;;;;;;;22.47;69.52;100624.97;5098902;28;20035;-81
2021/09/30 13:30:18;;;;;;;18.45;10.68;;;;;;;22.21;73.16;100686.19;5098861;28;20111;-82
2021/09/30 13:32:48;;;;;;;9.43;7.63;;;;;;;21.23;65.72;100695.66;5099260;28;20119;-83
2021/09/30 13:35:24;;;;;;;7.75;5.22;;;;;;;19.35;67.98;100665.00;5099032;28;20497;-86
2021/09/30 13:37:50;;;;;;;7.60;6.80;;;;;;;18.76;73.24;100583.13;5101098;28;20043;-84
2021/09/30 13:40:19;;;;;;;7.05;6.35;;;;;;;18.59;73.17;100588.38;5102398;28;20048;-82
2021/09/30 13:42:45;;;;;;;7.65;6.88;;;;;;;18.96;72.98;100595.50;5101527;28;20036;-85
2021/09/30 13:45:13;;;;;;;8.75;6.10;;;;;;;19.48;72.79;100594.78;5098383;28;20027;-86
2021/09/30 13:47:39;;;;;;;7.15;6.45;;;;;;;19.72;73.36;100591.00;5098985;28;20027;-81
2021/09/30 13:50:09;;;;;;;6.03;5.20;;;;;;;19.73;71.28;100580.53;5098506;28;20031;-80
2021/09/30 13:52:37;;;;;;;5.75;5.28;;;;;;;19.89;70.50;100575.13;5115600;28;20027;-79
2021/09/30 13:55:10;;;;;;;6.38;5.57;;;;;;;20.06;70.33;100557.22;5098870;28;20420;-78
2021/09/30 13:57:39;;;;;;;;;;;;;;;20.18;70.51;100540.94;5098857;28;20115;-79
2021/09/30 14:00:07;;;;;;;9.20;6.00;;;;;;;20.17;72.13;100540.16;5098420;28;19957;-79
2021/09/30 14:02:38;;;;;;;6.55;5.45;;;;;;;19.99;71.31;100519.78;5098329;28;20066;-78
2021/09/30 14:05:05;;;;;;;6.18;5.57;;;;;;;20.17;72.42;100528.84;5116532;28;20138;-78
2021/09/30 14:07:40;;;;;;;10.02;5.53;;;;;;;20.33;72.45;100537.56;5098730;28;20453;-78
2021/09/30 14:10:14;;;;;;;6.70;6.10;;;;;;;20.44;73.09;100557.22;5116309;28;20028;-80
2021/09/30 14:12:40;;;;;;;8.67;6.50;;;;;;;20.54;72.75;100569.66;5097534;28;20031;-79
2021/09/30 14:15:06;;;;;;;7.63;6.13;;;;;;;20.73;73.82;100560.53;5097933;28;20027;-79
2021/09/30 14:17:32;;;;;;;10.07;7.00;;;;;;;20.87;73.00;100560.34;5097647;28;20038;-79
2021/09/30 14:19:58;;;;;;;6.88;5.95;;;;;;;21.00;72.20;100557.75;5097821;28;20034;-78
2021/09/30 14:22:26;;;;;;;7.40;5.43;;;;;;;21.11;70.49;100569.72;5098054;28;20031;-79
2021/09/30 14:24:55;;;;;;;7.63;6.13;;;;;;;21.26;72.08;100595.78;5098068;28;20055;-79
2021/09/30 14:27:23;;;;;;;10.45;6.57;;;;;;;21.18;70.57;100592.25;5116596;28;20023;-80
2021/09/30 14:29:55;;;;;;;6.05;5.45;;;;;;;21.04;70.89;100585.97;5098046;28;20188;-78
2021/09/30 14:32:21;;;;;;;8.02;5.63;;;;;;;21.07;72.69;100576.66;5098381;28;20032;-79
2021/09/30 14:34:55;;;;;;;6.15;5.57;;;;;;;21.13;70.79;100591.91;5097853;28;20104;-80
2021/09/30 14:37:20;;;;;;;9.23;5.22;;;;;;;21.01;71.05;100603.81;5097744;28;20172;-77
2021/09/30 14:39:46;;;;;;;9.50;6.82;;;;;;;20.95;73.10;100616.81;5097821;28;20468;-79
2021/09/30 14:42:15;;;;;;;7.18;6.47;;;;;;;20.71;74.00;100605.38;5097541;28;20034;-77